createdAt,value
2023-03-26T00:01:07.617Z,11.35
2023-03-26T00:03:35.246Z,12.45
2023-03-26T00:06:15.960Z,12.60
2023-03-26T00:08:45.064Z,9.77
2023-03-26T00:11:14.482Z,10.48
2023-03-26T00:13:43.646Z,10.98
2023-03-26T00:16:13.683Z,10.80
2023-03-26T00:18:44.071Z,9.73
2023-03-26T00:21:13.878Z,10.93
2023-03-26T00:23:41.517Z,8.07
2023-03-26T00:26:12.887Z,13.43
2023-03-26T00:28:41.841Z,10.15
2023-03-26T00:31:11.367Z,9.48
2023-03-26T00:33:40.702Z,10.77
2023-03-26T00:36:14.586Z,11.87
2023-03-26T00:38:42.028Z,9.63
2023-03-26T00:41:17.872Z,9.00
2023-03-26T00:43:46.546Z,9.57
2023-03-26T00:46:13.233Z,8.85
2023-03-26T00:48:45.494Z,10.30
2023-03-26T00:51:15.548Z,8.95
2023-03-26T00:53:43.965Z,9.02
2023-03-26T00:56:11.341Z,11.65
2023-03-26T00:58:38.709Z,8.63
2023-03-26T01:01:14.837Z,10.30
2023-03-26T01:03:53.049Z,9.98
2023-03-26T01:06:33.883Z,8.75
2023-03-26T01:09:16.906Z,8.98
2023-03-26T01:11:43.512Z,10.68
2023-03-26T01:14:23.534Z,9.43
2023-03-26T01:16:56.147Z,9.93
2023-03-26T01:19:29.266Z,8.20
2023-03-26T01:21:57.101Z,8.07
2023-03-26T01:24:23.557Z,9.77
2023-03-26T01:27:05.210Z,7.70
2023-03-26T01:29:56.411Z,6.57
2023-03-26T01:32:41.123Z,9.90
2023-03-26T01:35:31.517Z,8.65
2023-03-26T01:38:13.065Z,8.32
2023-03-26T01:41:14.361Z,11.95
2023-03-26T01:43:51.271Z,10.30
2023-03-26T01:46:19.353Z,11.60
2023-03-26T01:48:47.246Z,8.95
2023-03-26T01:51:25.534Z,11.70
2023-03-26T01:53:52.565Z,13.32
2023-03-26T01:56:39.228Z,11.27
2023-03-26T01:59:33.636Z,10.93
2023-03-26T02:02:30.580Z,8.82
2023-03-26T02:05:20.993Z,10.88
2023-03-26T02:08:03.028Z,9.80
2023-03-26T02:10:31.814Z,8.50
2023-03-26T02:12:59.042Z,7.75
2023-03-26T02:15:25.578Z,8.05
2023-03-26T02:17:53.052Z,11.35
2023-03-26T02:20:21.584Z,8.90
2023-03-26T02:22:48.304Z,10.48
2023-03-26T02:25:18.095Z,9.32
2023-03-26T02:27:47.286Z,9.10
2023-03-26T02:30:17.602Z,8.93
2023-03-26T02:32:44.149Z,7.82
2023-03-26T02:35:12.000Z,10.35
2023-03-26T02:37:39.197Z,6.28
2023-03-26T02:40:11.165Z,8.73
2023-03-26T02:42:38.351Z,6.13
2023-03-26T02:45:07.756Z,8.57
2023-03-26T02:47:40.685Z,6.30
2023-03-26T02:50:09.014Z,5.53
2023-03-26T02:52:37.431Z,5.85
2023-03-26T02:55:03.985Z,5.40
2023-03-26T02:57:31.142Z,7.68
2023-03-26T02:59:57.851Z,7.45
2023-03-26T03:02:24.336Z,4.05
2023-03-26T03:04:51.915Z,4.78
2023-03-26T03:07:18.304Z,4.28
2023-03-26T03:09:44.727Z,5.70
2023-03-26T03:12:11.152Z,4.93
2023-03-26T03:14:37.801Z,3.67
2023-03-26T03:17:04.221Z,3.20
2023-03-26T03:19:30.699Z,4.05
2023-03-26T03:21:57.138Z,3.80
2023-03-26T03:24:23.536Z,4.45
2023-03-26T03:26:50.373Z,3.05
2023-03-26T03:29:16.795Z,4.55
2023-03-26T03:31:43.215Z,4.55
2023-03-26T03:34:09.610Z,4.43
2023-03-26T03:36:38.492Z,4.03
2023-03-26T03:39:05.203Z,3.65
2023-03-26T03:41:31.664Z,6.00
2023-03-26T03:43:59.795Z,5.68
2023-03-26T03:46:26.349Z,5.75
2023-03-26T03:48:52.805Z,5.15
2023-03-26T03:51:19.678Z,4.55
2023-03-26T03:53:46.226Z,4.70
2023-03-26T03:56:14.596Z,5.97
2023-03-26T03:58:41.681Z,6.28
2023-03-26T04:01:08.098Z,5.22
2023-03-26T04:03:38.867Z,4.70
2023-03-26T04:06:11.088Z,4.45
2023-03-26T04:08:37.496Z,4.70
2023-03-26T04:11:04.715Z,5.63
2023-03-26T04:13:31.236Z,5.35
2023-03-26T04:15:57.981Z,5.70
2023-03-26T04:18:26.273Z,5.40
2023-03-26T04:20:54.599Z,5.60
2023-03-26T04:23:22.290Z,7.43
2023-03-26T04:25:53.899Z,6.65
2023-03-26T04:28:48.855Z,7.15
2023-03-26T04:31:24.254Z,6.57
2023-03-26T04:33:55.367Z,8.02
2023-03-26T04:36:30.073Z,6.18
2023-03-26T04:38:58.424Z,5.32
2023-03-26T04:41:27.924Z,5.18
2023-03-26T04:43:55.228Z,5.20
2023-03-26T04:46:21.909Z,6.03
2023-03-26T04:48:49.685Z,6.03
2023-03-26T04:51:17.998Z,5.65
2023-03-26T04:53:59.990Z,5.53
2023-03-26T04:56:35.638Z,5.78
2023-03-26T04:59:02.952Z,5.28
2023-03-26T05:01:30.732Z,3.70
2023-03-26T05:04:00.641Z,5.68
2023-03-26T05:06:30.521Z,4.97
2023-03-26T05:08:56.966Z,5.68
2023-03-26T05:11:23.346Z,5.05
2023-03-26T05:13:49.727Z,6.68
2023-03-26T05:16:16.201Z,7.78
2023-03-26T05:18:42.677Z,7.47
2023-03-26T05:21:09.094Z,8.25
2023-03-26T05:23:35.599Z,8.45
2023-03-26T05:26:01.998Z,7.22
2023-03-26T05:28:28.491Z,9.73
2023-03-26T05:30:55.441Z,11.50
2023-03-26T05:33:22.715Z,10.23
2023-03-26T05:36:02.764Z,12.23
2023-03-26T05:38:30.243Z,11.55
2023-03-26T05:41:01.701Z,10.02
2023-03-26T05:43:28.879Z,12.43
2023-03-26T05:45:55.741Z,10.60
2023-03-26T05:48:22.483Z,12.13
2023-03-26T05:50:50.362Z,13.73
2023-03-26T05:53:18.261Z,10.25
2023-03-26T05:55:46.400Z,10.88
2023-03-26T05:58:13.808Z,15.02
2023-03-26T06:00:40.187Z,14.35
2023-03-26T06:03:12.389Z,9.00
2023-03-26T06:05:39.936Z,12.32
2023-03-26T06:08:07.103Z,9.93
2023-03-26T06:10:33.466Z,12.57
2023-03-26T06:12:59.847Z,11.50
2023-03-26T06:15:26.341Z,17.00
2023-03-26T06:17:52.749Z,9.93
2023-03-26T06:20:19.184Z,13.65
2023-03-26T06:22:45.669Z,11.00
2023-03-26T06:25:12.081Z,10.88
2023-03-26T06:27:38.454Z,13.82
2023-03-26T06:30:05.598Z,15.13
2023-03-26T06:32:32.052Z,13.15
2023-03-26T06:34:58.507Z,15.30
2023-03-26T06:37:24.851Z,11.95
2023-03-26T06:39:51.261Z,15.40
2023-03-26T06:42:17.651Z,14.40
2023-03-26T06:44:44.025Z,12.43
2023-03-26T06:47:10.433Z,14.82
2023-03-26T06:49:38.166Z,15.95
2023-03-26T06:52:04.956Z,14.95
2023-03-26T06:54:31.556Z,16.48
2023-03-26T06:56:58.978Z,14.73
2023-03-26T06:59:25.930Z,11.50
2023-03-26T07:01:52.296Z,17.05
2023-03-26T07:04:18.720Z,14.25
2023-03-26T07:06:45.901Z,14.30
2023-03-26T07:09:12.316Z,13.98
2023-03-26T07:11:38.857Z,16.08
2023-03-26T07:14:05.528Z,13.77
2023-03-26T07:16:31.922Z,15.60
2023-03-26T07:18:58.455Z,14.77
2023-03-26T07:21:25.263Z,13.68
2023-03-26T07:23:52.600Z,14.20
2023-03-26T07:26:42.574Z,12.63
2023-03-26T07:29:27.666Z,15.05
2023-03-26T07:32:13.963Z,15.15
2023-03-26T07:34:56.634Z,15.80
2023-03-26T07:37:37.308Z,13.07
2023-03-26T07:40:19.691Z,11.63
2023-03-26T07:42:55.626Z,14.10
2023-03-26T07:45:32.758Z,16.70
2023-03-26T07:48:00.263Z,15.60
2023-03-26T07:50:26.948Z,14.18
2023-03-26T07:52:53.576Z,12.73
2023-03-26T07:55:20.540Z,13.95
2023-03-26T07:58:14.883Z,16.50
2023-03-26T08:00:47.923Z,15.00
2023-03-26T08:03:23.460Z,13.63
2023-03-26T08:05:52.955Z,16.00
2023-03-26T08:08:27.451Z,15.65
2023-03-26T08:11:08.890Z,14.20
2023-03-26T08:13:48.863Z,17.20
2023-03-26T08:16:26.673Z,13.10
2023-03-26T08:19:44.775Z,16.45
2023-03-26T08:22:26.276Z,15.70
2023-03-26T08:25:05.279Z,19.77
2023-03-26T08:27:47.938Z,14.68
2023-03-26T08:30:20.197Z,14.98
2023-03-26T08:33:02.212Z,14.30
2023-03-26T08:35:28.762Z,20.02
2023-03-26T08:37:55.305Z,16.45
2023-03-26T08:40:38.816Z,19.55
2023-03-26T08:43:30.241Z,19.88
2023-03-26T08:46:09.424Z,20.15
2023-03-26T08:49:01.498Z,14.43
2023-03-26T08:51:42.495Z,16.15
2023-03-26T08:54:42.989Z,17.20
2023-03-26T08:59:56.719Z,14.60
2023-03-26T09:02:53.845Z,17.45
2023-03-26T09:05:45.019Z,14.90
2023-03-26T09:08:53.702Z,13.98
2023-03-26T09:12:12.289Z,15.87
2023-03-26T09:15:20.988Z,14.13
2023-03-26T09:18:03.184Z,14.43
2023-03-26T09:20:45.478Z,16.45
2023-03-26T09:23:37.677Z,14.20
2023-03-26T09:26:43.089Z,15.38
2023-03-26T09:29:34.602Z,16.80
2023-03-26T09:32:10.528Z,17.42
2023-03-26T09:35:23.698Z,15.30
2023-03-26T09:38:22.403Z,17.60
2023-03-26T09:41:16.871Z,15.93
2023-03-26T09:43:58.458Z,12.23
2023-03-26T09:46:46.720Z,14.95
2023-03-26T09:49:29.462Z,16.05
2023-03-26T09:52:08.968Z,13.90
2023-03-26T09:54:48.394Z,12.43
2023-03-26T09:57:30.747Z,13.20
2023-03-26T10:00:15.995Z,15.38
2023-03-26T10:03:12.853Z,11.60
2023-03-26T10:06:07.058Z,18.52
2023-03-26T10:08:50.985Z,13.80
2023-03-26T10:11:56.328Z,11.55
2023-03-26T10:14:25.690Z,14.27
2023-03-26T10:17:25.662Z,17.08
2023-03-26T10:20:19.590Z,13.60
2023-03-26T10:23:00.480Z,12.65
2023-03-26T10:25:57.710Z,14.55
2023-03-26T10:28:31.270Z,13.55
2023-03-26T10:31:28.627Z,14.65
2023-03-26T10:34:09.212Z,15.02
2023-03-26T10:36:58.372Z,14.07
2023-03-26T10:39:36.760Z,18.13
2023-03-26T10:44:56.038Z,13.90
2023-03-26T10:47:54.926Z,14.15
2023-03-26T10:50:46.907Z,11.75
2023-03-26T10:53:27.288Z,11.40
2023-03-26T10:56:03.278Z,17.30
2023-03-26T10:58:48.359Z,13.57
2023-03-26T11:01:42.494Z,12.63
2023-03-26T11:04:23.389Z,9.52
2023-03-26T11:07:06.578Z,11.10
2023-03-26T11:09:54.198Z,11.05
2023-03-26T11:12:35.696Z,15.10
2023-03-26T11:15:05.162Z,18.70
2023-03-26T11:17:41.774Z,13.90
2023-03-26T11:20:27.073Z,10.60
2023-03-26T11:23:35.133Z,17.48
2023-03-26T11:26:15.951Z,13.65
2023-03-26T11:29:04.581Z,12.32
2023-03-26T11:32:07.349Z,10.13
2023-03-26T11:34:38.453Z,15.63
2023-03-26T11:37:09.143Z,12.55
2023-03-26T11:39:49.837Z,15.73
2023-03-26T11:42:18.470Z,12.15
2023-03-26T11:45:01.088Z,14.02
2023-03-26T11:47:49.346Z,13.52
2023-03-26T11:50:21.117Z,12.52
2023-03-26T11:52:47.898Z,11.68
2023-03-26T11:55:14.344Z,14.85
2023-03-26T11:57:47.012Z,10.88
2023-03-26T12:00:21.079Z,12.13
2023-03-26T12:02:48.509Z,12.55
2023-03-26T12:05:20.315Z,12.48
2023-03-26T12:08:00.140Z,13.73
2023-03-26T12:10:35.031Z,12.95
2023-03-26T12:13:06.464Z,11.43
2023-03-26T12:15:33.027Z,9.15
2023-03-26T12:18:19.631Z,13.55
2023-03-26T12:20:46.091Z,10.35
2023-03-26T12:23:36.804Z,10.60
2023-03-26T12:26:20.810Z,9.38
2023-03-26T12:28:49.646Z,9.48
2023-03-26T12:31:19.132Z,10.45
2023-03-26T12:34:04.163Z,12.13
2023-03-26T12:36:33.337Z,10.07
2023-03-26T12:39:17.140Z,12.55
2023-03-26T12:44:44.292Z,11.27
2023-03-26T12:44:59.056Z,9.93
2023-03-26T12:48:01.001Z,11.85
2023-03-26T12:50:16.917Z,13.10
2023-03-26T12:53:02.804Z,11.65
2023-03-26T12:55:42.275Z,11.82
2023-03-26T12:58:33.860Z,10.83
2023-03-26T13:01:18.550Z,12.68
2023-03-26T13:04:17.153Z,11.23
2023-03-26T13:07:00.156Z,8.77
2023-03-26T13:09:28.461Z,9.98
2023-03-26T13:12:00.350Z,10.57
2023-03-26T13:14:26.818Z,10.15
2023-03-26T13:17:03.591Z,9.38
2023-03-26T13:20:19.012Z,8.32
2023-03-26T13:22:56.300Z,9.77
2023-03-26T13:25:43.273Z,8.80
2023-03-26T13:28:25.544Z,9.60
2023-03-26T13:31:05.879Z,8.52
2023-03-26T13:33:38.044Z,8.65
2023-03-26T13:36:21.706Z,10.10
2023-03-26T13:39:09.563Z,9.43
2023-03-26T13:41:45.253Z,7.40
2023-03-26T13:44:20.838Z,7.82
2023-03-26T13:46:59.364Z,9.68
2023-03-26T13:49:46.389Z,10.68
2023-03-26T13:52:20.892Z,9.60
2023-03-26T13:54:54.785Z,7.85
2023-03-26T13:57:29.441Z,8.40
2023-03-26T14:00:13.933Z,7.78
2023-03-26T14:02:43.080Z,8.18
2023-03-26T14:05:16.820Z,7.47
2023-03-26T14:07:52.581Z,7.25
2023-03-26T14:10:26.514Z,7.13
2023-03-26T14:13:24.120Z,6.55
2023-03-26T14:15:56.312Z,7.70
2023-03-26T14:18:32.245Z,7.10
2023-03-26T14:21:43.660Z,7.63
2023-03-26T14:24:28.732Z,7.63
2023-03-26T14:27:34.053Z,6.88
2023-03-26T14:30:28.548Z,7.72
2023-03-26T14:33:12.782Z,6.88
2023-03-26T14:36:01.236Z,5.88
2023-03-26T14:39:09.461Z,5.90
2023-03-26T14:41:53.141Z,5.53
2023-03-26T14:45:04.726Z,5.63
2023-03-26T14:47:38.026Z,5.72
2023-03-26T14:50:31.490Z,5.35
2023-03-26T14:53:01.814Z,7.03
2023-03-26T14:55:35.304Z,5.65
2023-03-26T14:58:40.640Z,4.68
2023-03-26T15:01:28.228Z,4.57
2023-03-26T15:04:00.736Z,5.20
2023-03-26T15:06:51.985Z,4.97
2023-03-26T15:09:56.630Z,4.75
2023-03-26T15:12:51.803Z,5.20
2023-03-26T15:15:27.159Z,4.40
2023-03-26T15:18:06.294Z,5.35
2023-03-26T15:21:02.099Z,4.15
2023-03-26T15:23:42.795Z,4.22
2023-03-26T15:26:28.977Z,5.32
2023-03-26T15:29:04.914Z,4.53
2023-03-26T15:31:55.288Z,4.05
2023-03-26T15:34:43.497Z,3.88
2023-03-26T15:37:24.837Z,5.10
2023-03-26T15:40:16.227Z,3.55
2023-03-26T15:43:15.610Z,4.32
2023-03-26T15:45:53.917Z,4.90
2023-03-26T15:48:40.962Z,4.47
2023-03-26T15:51:31.965Z,3.70
2023-03-26T15:54:29.375Z,5.57
2023-03-26T15:57:07.846Z,4.30
2023-03-26T15:59:41.735Z,4.00
2023-03-26T16:02:17.589Z,4.45
2023-03-26T16:04:51.851Z,4.57
2023-03-26T16:07:30.734Z,3.38
2023-03-26T16:10:11.326Z,3.63
2023-03-26T16:13:14.498Z,4.07
2023-03-26T16:15:42.742Z,4.50
2023-03-26T16:18:15.537Z,3.72
2023-03-26T16:20:46.840Z,3.50
2023-03-26T16:23:30.438Z,5.38
2023-03-26T16:25:59.076Z,3.80
2023-03-26T16:28:35.865Z,3.97
2023-03-26T16:31:38.053Z,4.15
2023-03-26T16:34:05.757Z,3.67
2023-03-26T16:36:35.176Z,3.95
2023-03-26T16:39:08.403Z,4.00
2023-03-26T16:42:06.557Z,3.60
2023-03-26T16:44:47.333Z,4.20
2023-03-26T16:50:29.051Z,3.70
2023-03-26T16:53:15.497Z,4.45
2023-03-26T16:55:59.299Z,3.78
2023-03-26T16:58:40.022Z,4.15
2023-03-26T17:01:48.250Z,4.63
2023-03-26T17:04:24.782Z,4.70
2023-03-26T17:07:09.077Z,4.60
2023-03-26T17:09:44.039Z,5.07
2023-03-26T17:12:29.697Z,4.63
2023-03-26T17:15:21.037Z,5.28
2023-03-26T17:17:56.763Z,5.55
2023-03-26T17:20:37.462Z,5.50
2023-03-26T17:23:22.613Z,5.20
2023-03-26T17:26:04.874Z,6.30
2023-03-26T17:28:48.262Z,6.47
2023-03-26T17:31:23.624Z,6.50
2023-03-26T17:33:50.657Z,6.00
2023-03-26T17:36:21.373Z,5.85
2023-03-26T17:38:47.854Z,6.15
2023-03-26T17:41:52.069Z,5.50
2023-03-26T17:44:36.890Z,5.72
2023-03-26T17:47:06.555Z,5.90
2023-03-26T17:49:34.691Z,6.53
2023-03-26T17:52:15.055Z,6.45
2023-03-26T17:54:47.312Z,7.47
2023-03-26T17:57:26.815Z,7.03
2023-03-26T17:59:58.029Z,7.13
2023-03-26T18:02:36.883Z,7.50
2023-03-26T18:05:06.147Z,7.20
2023-03-26T18:08:02.046Z,6.15
2023-03-26T18:10:49.014Z,6.35
2023-03-26T18:13:44.878Z,6.45
2023-03-26T18:16:14.466Z,5.72
2023-03-26T18:19:04.288Z,6.38
2023-03-26T18:21:35.933Z,6.00
2023-03-26T18:24:05.645Z,6.40
2023-03-26T18:26:35.559Z,5.93
2023-03-26T18:29:29.718Z,7.05
2023-03-26T18:32:22.055Z,6.20
2023-03-26T18:34:54.058Z,6.55
2023-03-26T18:37:24.535Z,6.00
2023-03-26T18:42:24.882Z,6.30
2023-03-26T18:44:52.938Z,6.55
2023-03-26T18:47:20.578Z,5.60
2023-03-26T18:49:49.698Z,5.55
2023-03-26T18:52:19.071Z,5.10
2023-03-26T18:54:52.216Z,6.13
2023-03-26T18:57:25.890Z,6.20
2023-03-26T18:59:54.715Z,5.80
2023-03-26T19:02:22.838Z,5.45
2023-03-26T19:04:52.028Z,5.80
2023-03-26T19:07:25.079Z,5.80
2023-03-26T19:09:56.257Z,5.60
2023-03-26T19:12:32.870Z,5.93
2023-03-26T19:15:09.917Z,5.70
2023-03-26T19:17:48.405Z,5.38
2023-03-26T19:20:21.798Z,5.28
2023-03-26T19:22:49.008Z,6.40
2023-03-26T19:25:25.594Z,6.40
2023-03-26T19:27:52.488Z,5.47
2023-03-26T19:30:40.595Z,6.38
2023-03-26T19:33:16.279Z,5.78
2023-03-26T19:35:46.274Z,5.40
2023-03-26T19:38:23.530Z,4.30
2023-03-26T19:40:54.543Z,4.40
2023-03-26T19:43:21.835Z,4.10
2023-03-26T19:46:04.953Z,4.85
2023-03-26T19:48:46.924Z,4.82
2023-03-26T19:51:20.256Z,3.90
2023-03-26T19:53:53.785Z,4.95
2023-03-26T19:56:21.962Z,4.03
2023-03-26T19:58:50.112Z,4.60
2023-03-26T20:01:23.628Z,5.30
2023-03-26T20:04:00.344Z,4.00
2023-03-26T20:09:16.768Z,4.80
2023-03-26T20:11:43.296Z,3.95
2023-03-26T20:14:14.061Z,4.38
2023-03-26T20:16:41.628Z,4.97
2023-03-26T20:19:09.436Z,4.63
2023-03-26T20:21:38.215Z,4.18
2023-03-26T20:24:12.820Z,4.55
2023-03-26T20:26:39.223Z,4.70
2023-03-26T20:29:06.154Z,4.10
2023-03-26T20:31:32.886Z,3.55
2023-03-26T20:33:59.409Z,3.83
2023-03-26T20:36:34.214Z,4.15
2023-03-26T20:39:05.494Z,4.07
2023-03-26T20:41:32.670Z,4.75
2023-03-26T20:43:59.038Z,3.53
2023-03-26T20:46:31.078Z,3.88
2023-03-26T20:48:58.904Z,3.95
2023-03-26T20:51:28.218Z,3.22
2023-03-26T20:53:55.207Z,3.67
2023-03-26T20:56:21.854Z,3.80
2023-03-26T20:59:09.970Z,4.40
2023-03-26T21:01:38.181Z,3.50
2023-03-26T21:04:05.089Z,3.50
2023-03-26T21:06:31.617Z,5.13
2023-03-26T21:08:58.290Z,3.60
2023-03-26T21:11:51.860Z,3.70
2023-03-26T21:14:33.863Z,4.00
2023-03-26T21:17:01.393Z,4.47
2023-03-26T21:19:28.431Z,3.67
2023-03-26T21:22:07.226Z,3.47
2023-03-26T21:24:58.971Z,4.97
2023-03-26T21:27:34.147Z,3.85
2023-03-26T21:30:00.803Z,3.58
2023-03-26T21:32:27.916Z,3.60
2023-03-26T21:34:58.935Z,7.03
2023-03-26T21:37:26.456Z,4.20
2023-03-26T21:39:53.047Z,5.40
2023-03-26T21:42:19.691Z,4.15
2023-03-26T21:44:46.785Z,5.22
2023-03-26T21:47:13.655Z,4.72
2023-03-26T21:49:40.611Z,5.32
2023-03-26T21:52:07.583Z,6.13
2023-03-26T21:54:34.645Z,4.47
2023-03-26T21:57:17.777Z,5.18
2023-03-26T22:00:02.406Z,5.85
2023-03-26T22:02:38.065Z,4.80
2023-03-26T22:05:14.265Z,4.13
2023-03-26T22:07:56.508Z,4.07
2023-03-26T22:10:23.628Z,5.03
2023-03-26T22:12:50.563Z,4.97
2023-03-26T22:15:19.186Z,4.50
2023-03-26T22:17:53.693Z,4.40
2023-03-26T22:20:24.408Z,5.13
2023-03-26T22:25:18.114Z,5.18
2023-03-26T22:27:46.014Z,3.55
2023-03-26T22:30:13.871Z,3.97
2023-03-26T22:32:40.583Z,4.57
2023-03-26T22:35:07.377Z,4.72
2023-03-26T22:37:35.470Z,3.85
2023-03-26T22:40:01.941Z,4.93
2023-03-26T22:42:28.382Z,5.38
2023-03-26T22:44:54.762Z,4.68
2023-03-26T22:47:21.839Z,4.10
2023-03-26T22:49:48.262Z,3.75
2023-03-26T22:52:14.663Z,4.38
2023-03-26T22:54:41.067Z,3.97
2023-03-26T22:57:07.571Z,5.15
2023-03-26T22:59:34.157Z,4.03
2023-03-26T23:02:00.605Z,3.72
2023-03-26T23:04:32.174Z,3.60
2023-03-26T23:06:59.007Z,3.88
2023-03-26T23:09:25.772Z,3.63
2023-03-26T23:11:52.124Z,4.20
2023-03-26T23:14:19.117Z,4.38
2023-03-26T23:16:48.404Z,4.38
2023-03-26T23:19:14.812Z,3.33
2023-03-26T23:21:42.307Z,4.20
2023-03-26T23:24:09.031Z,3.10
2023-03-26T23:26:49.665Z,3.33
2023-03-26T23:29:17.401Z,4.05
2023-03-26T23:31:43.889Z,3.97
2023-03-26T23:34:10.953Z,3.10
2023-03-26T23:36:37.431Z,3.60
2023-03-26T23:39:04.775Z,3.05
2023-03-26T23:41:31.345Z,4.13
2023-03-26T23:43:57.748Z,3.13
2023-03-26T23:46:34.576Z,4.78
2023-03-26T23:49:04.308Z,3.10
2023-03-26T23:51:31.378Z,3.80
2023-03-26T23:53:58.426Z,2.97
2023-03-26T23:56:24.904Z,3.00
2023-03-26T23:58:51.439Z,2.70
